createdAt,value
2022-12-13T00:01:50.451Z,39.60
2022-12-13T00:04:52.849Z,42.00
2022-12-13T00:07:55.096Z,39.38
2022-12-13T00:11:06.820Z,35.75
2022-12-13T00:14:09.343Z,28.10
2022-12-13T00:17:11.612Z,36.03
2022-12-13T00:20:13.605Z,35.22
2022-12-13T00:23:15.737Z,32.30
2022-12-13T00:26:22.486Z,32.63
2022-12-13T00:29:24.553Z,29.67
2022-12-13T00:32:26.737Z,34.25
2022-12-13T00:35:28.889Z,27.50
2022-12-13T00:38:30.937Z,27.73
2022-12-13T00:41:35.527Z,31.13
2022-12-13T00:44:37.663Z,23.08
2022-12-13T00:47:41.009Z,24.70
2022-12-13T00:50:43.152Z,23.63
2022-12-13T00:53:45.287Z,24.67
2022-12-13T00:56:47.722Z,25.83
2022-12-13T00:59:50.886Z,24.15
2022-12-13T01:02:53.934Z,24.38
2022-12-13T01:09:21.850Z,21.95
2022-12-13T01:12:24.147Z,28.40
2022-12-13T01:15:26.249Z,22.05
2022-12-13T01:18:28.381Z,27.75
2022-12-13T01:21:30.461Z,21.88
2022-12-13T01:24:32.916Z,20.40
2022-12-13T01:27:35.057Z,25.17
2022-12-13T01:30:37.190Z,31.38
2022-12-13T01:33:40.651Z,23.30
2022-12-13T01:36:44.731Z,22.00
2022-12-13T01:39:46.799Z,26.45
2022-12-13T01:42:48.924Z,26.17
2022-12-13T01:45:51.023Z,22.95
2022-12-13T01:49:19.301Z,20.88
2022-12-13T01:55:27.817Z,25.58
2022-12-13T01:58:30.697Z,27.33
2022-12-13T02:01:33.205Z,23.65
2022-12-13T02:04:45.184Z,26.40
2022-12-13T02:07:48.927Z,24.45
2022-12-13T02:10:52.409Z,30.30
2022-12-13T02:13:54.776Z,29.17
2022-12-13T02:17:53.361Z,23.98
2022-12-13T02:21:03.626Z,24.08
2022-12-13T02:24:24.401Z,23.25
2022-12-13T02:28:01.010Z,26.92
2022-12-13T02:31:30.261Z,25.20
2022-12-13T02:34:42.272Z,29.23
2022-12-13T02:38:06.219Z,26.23
2022-12-13T02:41:21.159Z,21.77
2022-12-13T02:44:25.632Z,21.92
2022-12-13T02:47:31.655Z,25.88
2022-12-13T02:50:36.039Z,23.17
2022-12-13T02:53:41.260Z,29.55
2022-12-13T02:56:53.085Z,28.27
2022-12-13T02:59:55.295Z,29.55
2022-12-13T03:03:31.379Z,29.10
2022-12-13T03:06:54.616Z,23.30
2022-12-13T03:10:51.638Z,26.38
2022-12-13T03:14:00.452Z,28.70
2022-12-13T03:17:05.743Z,27.23
2022-12-13T03:20:22.515Z,27.42
2022-12-13T03:23:26.392Z,26.75
2022-12-13T03:26:28.806Z,25.13
2022-12-13T03:29:30.920Z,22.15
2022-12-13T03:32:33.264Z,26.33
2022-12-13T03:35:44.913Z,26.90
2022-12-13T03:38:50.703Z,25.80
2022-12-13T03:41:52.905Z,25.00
2022-12-13T03:44:54.914Z,34.10
2022-12-13T03:47:57.035Z,32.35
2022-12-13T03:50:59.252Z,26.52
2022-12-13T03:54:01.378Z,29.02
2022-12-13T03:57:03.772Z,31.75
2022-12-13T04:00:06.711Z,24.83
2022-12-13T04:06:21.795Z,21.35
2022-12-13T04:09:24.347Z,25.90
2022-12-13T04:12:48.384Z,27.50
2022-12-13T04:15:50.760Z,23.77
2022-12-13T04:18:52.886Z,23.30
2022-12-13T04:21:54.973Z,26.27
2022-12-13T04:24:57.013Z,29.27
2022-12-13T04:27:59.191Z,32.30
2022-12-13T04:31:02.159Z,35.70
2022-12-13T04:34:04.193Z,30.70
2022-12-13T04:37:06.860Z,31.02
2022-12-13T04:40:09.470Z,27.35
2022-12-13T04:43:20.579Z,34.85
2022-12-13T04:46:23.280Z,32.92
2022-12-13T04:49:25.387Z,30.45
2022-12-13T04:52:29.299Z,26.45
2022-12-13T04:55:34.209Z,28.42
2022-12-13T04:58:36.247Z,25.58
2022-12-13T05:01:38.369Z,33.60
2022-12-13T05:04:42.693Z,34.78
2022-12-13T05:07:44.874Z,34.70
2022-12-13T05:10:46.861Z,40.95
2022-12-13T05:13:49.038Z,37.08
2022-12-13T05:16:51.247Z,39.63
2022-12-13T05:19:55.630Z,39.15
2022-12-13T05:22:58.859Z,39.28
2022-12-13T05:26:01.196Z,42.05
2022-12-13T05:29:04.182Z,39.88
2022-12-13T05:32:06.488Z,34.55
2022-12-13T05:35:08.889Z,35.50
2022-12-13T05:38:15.447Z,35.78
2022-12-13T05:41:22.376Z,38.20
2022-12-13T05:44:24.558Z,37.40
2022-12-13T05:47:26.645Z,35.67
2022-12-13T05:50:28.782Z,40.47
2022-12-13T05:53:31.267Z,37.53
2022-12-13T05:56:34.301Z,37.58
2022-12-13T05:59:38.434Z,37.13
2022-12-13T06:02:42.192Z,29.27
2022-12-13T06:05:44.755Z,43.13
2022-12-13T06:08:46.817Z,56.53
2022-12-13T06:11:49.736Z,44.92
2022-12-13T06:14:52.116Z,51.42
2022-12-13T06:18:03.461Z,37.75
2022-12-13T06:21:07.168Z,39.35
2022-12-13T06:24:09.494Z,37.47
2022-12-13T06:27:12.053Z,40.60
2022-12-13T06:30:14.247Z,41.88
2022-12-13T06:33:23.398Z,42.65
2022-12-13T06:36:25.697Z,40.80
2022-12-13T06:39:33.183Z,38.80
2022-12-13T06:42:35.570Z,40.30
2022-12-13T06:45:42.275Z,35.28
2022-12-13T06:48:45.757Z,35.97
2022-12-13T06:51:49.309Z,29.88
2022-12-13T06:54:55.486Z,29.02
2022-12-13T06:58:00.666Z,34.92
2022-12-13T07:01:15.012Z,31.38
2022-12-13T07:04:29.629Z,31.67
2022-12-13T07:07:33.008Z,24.15
2022-12-13T07:10:35.329Z,24.23
2022-12-13T07:13:37.804Z,24.33
2022-12-13T07:16:39.862Z,16.00
2022-12-13T07:19:41.874Z,24.15
2022-12-13T07:22:48.511Z,20.58
2022-12-13T07:25:56.034Z,22.73
2022-12-13T07:29:00.135Z,15.90
2022-12-13T07:32:02.351Z,17.70
2022-12-13T07:35:04.574Z,14.73
2022-12-13T07:38:08.356Z,14.95
2022-12-13T07:41:12.250Z,18.13
2022-12-13T07:44:14.502Z,15.70
2022-12-13T07:47:16.567Z,16.08
2022-12-13T07:50:36.850Z,19.23
2022-12-13T07:53:40.564Z,20.42
2022-12-13T07:56:42.838Z,19.70
2022-12-13T07:59:44.994Z,20.70
2022-12-13T08:02:47.310Z,22.42
2022-12-13T08:05:49.440Z,17.30
2022-12-13T08:09:00.693Z,19.73
2022-12-13T08:12:05.518Z,17.77
2022-12-13T08:15:13.790Z,16.42
2022-12-13T08:18:16.334Z,11.90
2022-12-13T08:21:51.762Z,12.18
2022-12-13T08:24:40.827Z,13.75
2022-12-13T08:27:43.230Z,14.75
2022-12-13T08:30:45.917Z,11.48
2022-12-13T08:33:48.867Z,8.23
2022-12-13T08:36:52.506Z,9.27
2022-12-13T08:40:06.509Z,12.38
2022-12-13T08:43:08.570Z,13.80
2022-12-13T08:46:10.705Z,11.68
2022-12-13T08:49:12.866Z,12.73
2022-12-13T08:52:15.211Z,13.25
2022-12-13T08:55:19.996Z,12.90
2022-12-13T08:58:24.501Z,10.85
2022-12-13T09:01:26.501Z,16.83
2022-12-13T09:04:31.225Z,11.02
2022-12-13T09:07:36.390Z,9.95
2022-12-13T09:10:38.918Z,8.85
2022-12-13T09:13:43.290Z,12.60
2022-12-13T09:16:50.755Z,8.63
2022-12-13T09:19:58.457Z,10.38
2022-12-13T09:23:03.540Z,11.50
2022-12-13T09:26:06.345Z,12.85
2022-12-13T09:29:10.700Z,13.73
2022-12-13T09:32:13.774Z,14.02
2022-12-13T09:35:15.980Z,10.27
2022-12-13T09:38:18.673Z,20.55
2022-12-13T09:41:32.450Z,10.30
2022-12-13T09:44:53.650Z,11.93
2022-12-13T09:48:13.498Z,11.88
2022-12-13T09:51:26.177Z,13.55
2022-12-13T09:54:34.443Z,16.30
2022-12-13T09:57:37.257Z,15.20
2022-12-13T10:00:40.968Z,12.48
2022-12-13T10:03:51.925Z,9.68
2022-12-13T10:06:54.899Z,14.00
2022-12-13T10:10:04.028Z,19.70
2022-12-13T10:13:27.686Z,14.77
2022-12-13T10:16:37.127Z,13.00
2022-12-13T10:19:43.435Z,12.60
2022-12-13T10:23:33.320Z,9.07
2022-12-13T10:26:44.674Z,10.80
2022-12-13T10:30:05.935Z,11.15
2022-12-13T10:33:24.397Z,10.65
2022-12-13T10:36:41.589Z,10.90
2022-12-13T10:39:44.931Z,10.55
2022-12-13T10:43:15.508Z,12.23
2022-12-13T10:46:25.151Z,12.40
2022-12-13T10:49:38.146Z,13.57
2022-12-13T10:52:47.227Z,14.77
2022-12-13T10:55:55.776Z,9.85
2022-12-13T10:59:37.524Z,9.25
2022-12-13T11:02:39.934Z,11.45
2022-12-13T11:05:42.498Z,12.70
2022-12-13T11:08:44.756Z,20.17
2022-12-13T11:11:50.408Z,11.20
2022-12-13T11:15:04.704Z,14.15
2022-12-13T11:18:19.818Z,8.98
2022-12-13T11:21:29.563Z,11.52
2022-12-13T11:24:36.328Z,18.55
2022-12-13T11:28:02.522Z,16.60
2022-12-13T11:31:28.610Z,17.92
2022-12-13T11:34:59.654Z,15.55
2022-12-13T11:38:17.917Z,22.73
2022-12-13T11:41:31.395Z,19.33
2022-12-13T11:44:55.956Z,22.20
2022-12-13T11:48:09.987Z,17.80
2022-12-13T11:51:15.860Z,19.42
2022-12-13T11:54:28.377Z,22.80
2022-12-13T11:57:44.541Z,18.02
2022-12-13T12:01:05.167Z,24.13
2022-12-13T12:04:19.641Z,15.63
2022-12-13T12:07:58.533Z,19.58
2022-12-13T12:11:35.864Z,26.25
2022-12-13T12:14:54.299Z,21.75
2022-12-13T12:17:57.012Z,19.05
2022-12-13T12:22:05.017Z,20.63
2022-12-13T12:25:43.991Z,21.10
2022-12-13T12:28:51.726Z,11.52
2022-12-13T12:31:58.232Z,23.95
2022-12-13T12:35:01.625Z,14.40
2022-12-13T12:38:04.115Z,20.67
2022-12-13T12:41:21.283Z,22.30
2022-12-13T12:44:31.338Z,17.75
2022-12-13T12:51:55.846Z,19.67
2022-12-13T12:55:13.492Z,19.05
2022-12-13T12:58:29.432Z,18.08
2022-12-13T13:02:12.933Z,19.23
2022-12-13T13:05:19.111Z,19.80
2022-12-13T13:08:56.610Z,16.00
2022-12-13T13:12:28.398Z,17.50
2022-12-13T13:15:53.330Z,19.27
2022-12-13T13:18:56.570Z,18.35
2022-12-13T13:22:01.483Z,21.33
2022-12-13T13:25:06.946Z,17.60
2022-12-13T13:28:14.886Z,24.10
2022-12-13T13:31:17.212Z,22.20
2022-12-13T13:34:27.430Z,18.42
2022-12-13T13:37:46.753Z,21.48
2022-12-13T13:40:49.869Z,20.33
2022-12-13T13:43:52.016Z,16.90
2022-12-13T13:47:22.482Z,15.80
2022-12-13T13:50:33.475Z,16.27
2022-12-13T13:53:52.765Z,20.63
2022-12-13T13:58:07.095Z,24.17
2022-12-13T14:01:33.629Z,24.10
2022-12-13T14:04:51.702Z,22.92
2022-12-13T14:08:20.775Z,24.27
2022-12-13T14:12:00.322Z,24.33
2022-12-13T14:15:30.739Z,27.20
2022-12-13T14:21:58.418Z,21.08
2022-12-13T14:25:19.067Z,19.92
2022-12-13T14:28:45.901Z,21.67
2022-12-13T14:31:50.122Z,26.05
2022-12-13T14:34:54.307Z,24.30
2022-12-13T14:38:08.150Z,21.88
2022-12-13T14:41:20.044Z,22.10
2022-12-13T14:44:27.872Z,25.98
2022-12-13T14:47:31.029Z,24.55
2022-12-13T14:50:36.720Z,22.80
2022-12-13T14:53:41.935Z,23.17
2022-12-13T14:57:02.395Z,20.27
2022-12-13T15:00:29.199Z,21.98
2022-12-13T15:03:31.582Z,20.13
2022-12-13T15:06:33.652Z,20.38
2022-12-13T15:09:39.546Z,23.13
2022-12-13T15:12:44.326Z,17.70
2022-12-13T15:15:56.372Z,26.40
2022-12-13T15:19:29.970Z,22.77
2022-12-13T15:22:37.973Z,20.88
2022-12-13T15:25:40.908Z,30.60
2022-12-13T15:28:46.648Z,23.60
2022-12-13T15:31:49.371Z,27.98
2022-12-13T15:34:52.044Z,25.45
2022-12-13T15:37:54.103Z,29.73
2022-12-13T15:40:57.077Z,26.17
2022-12-13T15:44:27.902Z,28.52
2022-12-13T15:47:31.675Z,22.92
2022-12-13T15:50:43.843Z,22.52
2022-12-13T15:54:10.491Z,22.38
2022-12-13T15:57:21.816Z,32.67
2022-12-13T16:00:33.596Z,22.70
2022-12-13T16:03:46.989Z,18.80
2022-12-13T16:06:53.357Z,17.05
2022-12-13T16:09:58.189Z,20.27
2022-12-13T16:13:07.873Z,24.52
2022-12-13T16:16:30.568Z,23.65
2022-12-13T16:19:33.017Z,35.63
2022-12-13T16:22:35.072Z,22.42
2022-12-13T16:25:37.245Z,26.25
2022-12-13T16:28:40.603Z,31.85
2022-12-13T16:31:44.361Z,23.80
2022-12-13T16:34:46.552Z,28.75
2022-12-13T16:37:49.255Z,23.85
2022-12-13T16:40:54.738Z,29.02
2022-12-13T16:44:01.872Z,44.75
2022-12-13T16:47:21.933Z,29.70
2022-12-13T16:50:29.180Z,32.20
2022-12-13T16:53:31.805Z,36.28
2022-12-13T16:56:33.890Z,35.25
2022-12-13T16:59:35.905Z,36.78
2022-12-13T17:02:38.493Z,33.97
2022-12-13T17:05:42.954Z,33.42
2022-12-13T17:08:45.134Z,28.30
2022-12-13T17:11:47.433Z,32.53
2022-12-13T17:14:49.682Z,29.45
2022-12-13T17:17:51.806Z,35.90
2022-12-13T17:20:58.359Z,41.03
2022-12-13T17:24:03.157Z,36.85
2022-12-13T17:27:05.472Z,43.45
2022-12-13T17:30:18.187Z,44.42
2022-12-13T17:33:23.156Z,30.27
2022-12-13T17:36:27.007Z,32.20
2022-12-13T17:39:29.275Z,30.73
2022-12-13T17:42:36.201Z,30.58
2022-12-13T17:45:39.189Z,33.58
2022-12-13T17:48:42.035Z,34.97
2022-12-13T17:51:44.122Z,41.15
2022-12-13T17:54:57.159Z,35.15
2022-12-13T17:58:04.540Z,44.95
2022-12-13T18:01:26.830Z,54.97
2022-12-13T18:04:36.382Z,55.88
2022-12-13T18:08:03.382Z,54.38
2022-12-13T18:14:42.442Z,63.53
2022-12-13T18:18:10.777Z,56.75
2022-12-13T18:21:11.109Z,57.58
2022-12-13T18:24:23.194Z,48.83
2022-12-13T18:27:25.343Z,54.53
2022-12-13T18:30:28.293Z,51.70
2022-12-13T18:33:33.474Z,48.88
2022-12-13T18:36:36.413Z,67.32
2022-12-13T18:39:38.758Z,62.45
2022-12-13T18:42:41.025Z,64.93
2022-12-13T18:45:43.357Z,65.30
2022-12-13T18:48:45.833Z,64.40
2022-12-13T18:51:49.173Z,59.65
2022-12-13T18:54:56.599Z,53.83
2022-12-13T18:57:58.630Z,62.85
2022-12-13T19:01:01.201Z,64.18
2022-12-13T19:04:04.450Z,64.10
2022-12-13T19:07:32.296Z,58.15
2022-12-13T19:10:37.663Z,69.80
2022-12-13T19:13:43.280Z,60.85
2022-12-13T19:16:45.346Z,71.88
2022-12-13T19:19:50.398Z,61.85
2022-12-13T19:22:55.391Z,57.57
2022-12-13T19:26:08.287Z,64.78
2022-12-13T19:29:12.575Z,67.03
2022-12-13T19:32:14.799Z,64.82
2022-12-13T19:35:17.363Z,62.05
2022-12-13T19:38:20.102Z,55.08
2022-12-13T19:41:24.201Z,51.50
2022-12-13T19:44:27.720Z,51.47
2022-12-13T19:47:29.963Z,66.75
2022-12-13T19:50:32.222Z,74.60
2022-12-13T19:53:35.654Z,72.25
2022-12-13T19:56:37.828Z,78.13
2022-12-13T19:59:40.932Z,66.15
2022-12-13T20:02:43.416Z,64.22
2022-12-13T20:05:56.357Z,67.10
2022-12-13T20:08:58.587Z,70.10
2022-12-13T20:12:01.078Z,61.95
2022-12-13T20:15:05.268Z,63.90
2022-12-13T20:18:07.355Z,66.43
2022-12-13T20:21:12.840Z,37.38
2022-12-13T20:24:26.692Z,31.95
2022-12-13T20:27:29.053Z,41.78
2022-12-13T20:30:31.167Z,38.90
2022-12-13T20:33:34.694Z,65.00
2022-12-13T20:36:37.392Z,71.60
2022-12-13T20:42:43.295Z,77.18
2022-12-13T20:45:45.473Z,76.82
2022-12-13T20:48:48.874Z,77.15
2022-12-13T20:51:51.030Z,72.35
2022-12-13T20:54:53.123Z,71.75
2022-12-13T20:57:55.393Z,79.55
2022-12-13T21:00:57.956Z,67.05
2022-12-13T21:04:02.105Z,63.58
2022-12-13T21:07:04.648Z,66.15
2022-12-13T21:10:07.432Z,56.53
2022-12-13T21:13:09.969Z,64.70
2022-12-13T21:16:13.171Z,58.90
2022-12-13T21:19:18.145Z,67.95
2022-12-13T21:22:21.932Z,53.10
2022-12-13T21:25:24.932Z,51.10
2022-12-13T21:28:29.477Z,52.88
2022-12-13T21:31:39.451Z,50.83
2022-12-13T21:35:10.902Z,50.00
2022-12-13T21:38:22.801Z,54.42
2022-12-13T21:41:25.625Z,59.05
2022-12-13T21:44:28.672Z,48.38
2022-12-13T21:47:33.519Z,43.60
2022-12-13T21:50:35.961Z,53.30
2022-12-13T21:53:38.540Z,55.30
2022-12-13T21:57:00.178Z,49.00
2022-12-13T22:00:03.800Z,48.28
2022-12-13T22:03:15.523Z,51.08
2022-12-13T22:06:17.671Z,51.97
2022-12-13T22:09:19.921Z,51.15
2022-12-13T22:12:28.074Z,46.78
2022-12-13T22:15:30.180Z,47.55
2022-12-13T22:18:32.306Z,49.53
2022-12-13T22:21:35.435Z,46.10
2022-12-13T22:24:37.592Z,48.30
2022-12-13T22:27:39.661Z,49.78
2022-12-13T22:30:42.367Z,50.53
2022-12-13T22:33:46.664Z,51.33
2022-12-13T22:36:49.040Z,53.25
2022-12-13T22:39:51.308Z,47.97
2022-12-13T22:42:53.940Z,50.85
2022-12-13T22:46:04.215Z,56.13
2022-12-13T22:49:07.461Z,46.30
2022-12-13T22:52:09.701Z,53.67
2022-12-13T22:55:13.151Z,47.83
2022-12-13T22:58:15.305Z,49.75
2022-12-13T23:01:20.899Z,49.30
2022-12-13T23:04:25.021Z,46.22
2022-12-13T23:07:28.236Z,41.17
2022-12-13T23:10:48.786Z,40.47
2022-12-13T23:13:55.516Z,49.67
2022-12-13T23:16:58.640Z,42.55
2022-12-13T23:20:00.914Z,43.88
2022-12-13T23:23:03.106Z,54.22
2022-12-13T23:26:28.602Z,47.35
2022-12-13T23:29:30.849Z,39.42
2022-12-13T23:32:34.189Z,51.35
2022-12-13T23:35:36.227Z,49.08
2022-12-13T23:38:39.472Z,46.10
2022-12-13T23:41:43.089Z,52.33
2022-12-13T23:44:45.296Z,46.97
2022-12-13T23:47:47.523Z,43.35
2022-12-13T23:50:52.016Z,47.55
2022-12-13T23:53:56.542Z,43.63
2022-12-13T23:56:58.786Z,46.53
